Terminal Aerodrome Forecast
Issued by NWS

Home | Current Version | Previous Version | Text Only | Print | Product List | Glossary On
Versions: 1 2 3 4 5 6 7 8 9 10 11 12 13 14 15 16 17 18 19 20 21 22 23
192
FTUS41 KPHI 282320
TAFMIV
TAF
KMIV 282320Z 2900/2924 03004KT 4SM -SHRA BR BKN008 OVC015
     FM290200 36004KT 4SM BR BKN005 OVC010
     FM290800 34008KT 6SM BR BKN009 OVC015
     FM291100 34010KT P6SM BKN015 BKN250
     FM291300 34010KT P6SM SCT025 BKN040
     FM291500 33010G18KT P6SM SCT250=

USA.gov is the U.S. government's official web portal to all federal, state and local government web resources and services.